createdAt,value
2019-03-23T00:00:10.295Z,0
2019-03-23T00:01:12.325Z,0
2019-03-23T00:02:14.342Z,0
2019-03-23T00:03:16.377Z,0
2019-03-23T00:04:18.421Z,0
2019-03-23T00:05:20.440Z,0
2019-03-23T00:06:32.246Z,0
2019-03-23T00:07:34.293Z,0
2019-03-23T00:08:36.323Z,0
2019-03-23T00:09:38.367Z,0
2019-03-23T00:10:40.398Z,0
2019-03-23T00:11:42.431Z,0
2019-03-23T00:12:44.453Z,0
2019-03-23T00:13:46.497Z,0
2019-03-23T00:14:48.521Z,0
2019-03-23T00:15:50.553Z,0
2019-03-23T00:16:53.150Z,0
2019-03-23T00:17:55.170Z,0
2019-03-23T00:18:57.265Z,0
2019-03-23T00:20:00.317Z,0
2019-03-23T00:21:02.390Z,0
2019-03-23T00:22:04.721Z,0
2019-03-23T00:23:06.811Z,0
2019-03-23T00:24:08.849Z,0
2019-03-23T00:25:10.874Z,0
2019-03-23T00:26:15.010Z,0
2019-03-23T00:27:17.367Z,0
2019-03-23T00:28:19.402Z,0
2019-03-23T00:29:21.735Z,0
2019-03-23T00:30:24.056Z,0
2019-03-23T00:31:26.847Z,0
2019-03-23T00:32:29.178Z,0
2019-03-23T00:33:31.490Z,0
2019-03-23T00:34:33.527Z,0
2019-03-23T00:35:35.563Z,0
2019-03-23T00:36:43.071Z,0
2019-03-23T00:37:45.091Z,0
2019-03-23T00:38:47.532Z,0
2019-03-23T00:39:49.567Z,0
2019-03-23T00:40:51.602Z,0
2019-03-23T00:41:53.632Z,0
2019-03-23T00:42:55.681Z,0
2019-03-23T00:43:58.001Z,0
2019-03-23T00:45:00.042Z,0
2019-03-23T00:46:02.359Z,0
2019-03-23T00:47:05.380Z,0
2019-03-23T00:48:07.402Z,0
2019-03-23T00:49:09.431Z,0
2019-03-23T00:50:11.521Z,0
2019-03-23T00:51:13.544Z,0
2019-03-23T00:52:15.589Z,0
2019-03-23T00:53:17.625Z,0
2019-03-23T00:54:19.670Z,0
2019-03-23T00:55:21.686Z,0
2019-03-23T00:56:23.720Z,0
2019-03-23T00:57:25.760Z,0
2019-03-23T00:58:28.449Z,0
2019-03-23T00:59:30.493Z,0
2019-03-23T01:00:32.511Z,0
2019-03-23T01:01:34.552Z,0
2019-03-23T01:02:36.621Z,0
2019-03-23T01:03:38.933Z,0
2019-03-23T01:04:40.955Z,0
2019-03-23T01:05:42.983Z,0
2019-03-23T01:06:53.860Z,0
2019-03-23T01:07:56.563Z,0
2019-03-23T01:08:58.608Z,0
2019-03-23T01:10:01.125Z,0
2019-03-23T01:11:03.143Z,0
2019-03-23T01:12:05.477Z,0
2019-03-23T01:13:07.509Z,0
2019-03-23T01:14:09.542Z,0
2019-03-23T01:15:11.581Z,0
2019-03-23T01:16:13.604Z,0
2019-03-23T01:17:15.644Z,0
2019-03-23T01:18:17.672Z,0
2019-03-23T01:19:19.709Z,0
2019-03-23T01:20:21.734Z,0
2019-03-23T01:21:23.767Z,0
2019-03-23T01:22:26.664Z,0
2019-03-23T01:23:28.696Z,0
2019-03-23T01:24:30.714Z,0
2019-03-23T01:25:32.756Z,0
2019-03-23T01:26:34.786Z,0
2019-03-23T01:27:37.211Z,0
2019-03-23T01:28:39.231Z,0
2019-03-23T01:29:41.267Z,0
2019-03-23T01:30:43.583Z,0
2019-03-23T01:31:45.617Z,0
2019-03-23T01:32:48.051Z,0
2019-03-23T01:33:50.082Z,0
2019-03-23T01:34:52.108Z,0
2019-03-23T01:35:54.156Z,0
2019-03-23T01:37:04.243Z,0
2019-03-23T01:38:06.278Z,0
2019-03-23T01:39:08.310Z,0
2019-03-23T01:40:10.335Z,0
2019-03-23T01:41:12.374Z,0
2019-03-23T01:42:14.423Z,0
2019-03-23T01:43:16.762Z,0
2019-03-23T01:44:18.782Z,0
2019-03-23T01:45:20.824Z,0
2019-03-23T01:46:22.903Z,0
2019-03-23T01:47:25.226Z,0
2019-03-23T01:48:27.268Z,0
2019-03-23T01:49:29.282Z,0
2019-03-23T01:50:31.630Z,0
2019-03-23T01:51:33.655Z,0
2019-03-23T01:52:35.979Z,0
2019-03-23T01:53:37.995Z,0
2019-03-23T01:54:40.031Z,0
2019-03-23T01:55:42.070Z,0
2019-03-23T01:56:44.096Z,0
2019-03-23T01:57:46.129Z,0
2019-03-23T01:58:48.171Z,0
2019-03-23T01:59:50.495Z,0
2019-03-23T02:00:52.523Z,0
2019-03-23T02:01:54.826Z,0
2019-03-23T02:02:57.249Z,0
2019-03-23T02:03:59.574Z,0
2019-03-23T02:05:01.890Z,0
2019-03-23T02:06:04.220Z,0
2019-03-23T02:07:15.945Z,0
2019-03-23T02:08:17.982Z,0
2019-03-23T02:09:20.052Z,0
2019-03-23T02:10:22.085Z,0
2019-03-23T02:11:24.114Z,0
2019-03-23T02:12:26.147Z,0
2019-03-23T02:13:28.170Z,0
2019-03-23T02:14:30.207Z,0
2019-03-23T02:15:32.245Z,0
2019-03-23T02:16:34.275Z,0
2019-03-23T02:17:36.302Z,0
2019-03-23T02:18:38.427Z,0
2019-03-23T02:19:40.472Z,0
2019-03-23T02:20:42.903Z,0
2019-03-23T02:21:44.933Z,0
2019-03-23T02:22:46.948Z,0
2019-03-23T02:23:48.983Z,0
2019-03-23T02:24:51.296Z,0
2019-03-23T02:25:53.339Z,0
2019-03-23T02:26:55.361Z,0
2019-03-23T02:27:57.676Z,0
2019-03-23T02:28:59.708Z,0
2019-03-23T02:30:03.016Z,0
2019-03-23T02:31:09.214Z,0
2019-03-23T02:32:11.256Z,0
2019-03-23T02:33:13.309Z,0
2019-03-23T02:34:16.637Z,0
2019-03-23T02:35:19.003Z,0
2019-03-23T02:36:21.620Z,0
2019-03-23T02:37:30.097Z,0
2019-03-23T02:38:32.175Z,0
2019-03-23T02:39:34.877Z,0
2019-03-23T02:40:36.936Z,0
2019-03-23T02:41:39.284Z,0
2019-03-23T02:42:42.376Z,0
2019-03-23T02:43:44.802Z,0
2019-03-23T02:44:47.292Z,0
2019-03-23T02:45:49.364Z,0
2019-03-23T02:46:51.455Z,0
2019-03-23T02:47:53.777Z,0
2019-03-23T02:48:56.394Z,0
2019-03-23T02:49:59.133Z,0
2019-03-23T02:51:01.494Z,0
2019-03-23T02:52:03.810Z,0
2019-03-23T02:53:06.242Z,0
2019-03-23T02:54:08.273Z,0
2019-03-23T02:55:10.357Z,0
2019-03-23T02:56:12.831Z,0
2019-03-23T02:57:15.170Z,0
2019-03-23T02:58:17.504Z,0
2019-03-23T02:59:20.093Z,0
2019-03-23T03:00:22.454Z,0
2019-03-23T03:01:24.490Z,0
2019-03-23T03:02:26.521Z,0
2019-03-23T03:03:28.572Z,0
2019-03-23T03:04:31.048Z,0
2019-03-23T03:05:33.101Z,0
2019-03-23T03:06:35.138Z,0
2019-03-23T03:07:45.751Z,0
2019-03-23T03:08:47.774Z,0
2019-03-23T03:09:50.130Z,0
2019-03-23T03:10:52.620Z,0
2019-03-23T03:11:54.677Z,0
2019-03-23T03:12:57.291Z,0
2019-03-23T03:13:59.604Z,0
2019-03-23T03:15:02.336Z,0
2019-03-23T03:16:05.032Z,0
2019-03-23T03:17:07.079Z,0
2019-03-23T03:18:09.422Z,0
2019-03-23T03:19:11.762Z,0
2019-03-23T03:20:13.816Z,0
2019-03-23T03:21:15.852Z,0
2019-03-23T03:22:18.196Z,0
2019-03-23T03:23:20.534Z,0
2019-03-23T03:24:22.617Z,0
2019-03-23T03:25:24.920Z,0
2019-03-23T03:26:27.266Z,0
2019-03-23T03:27:29.325Z,0
2019-03-23T03:28:31.995Z,0
2019-03-23T03:29:34.340Z,0
2019-03-23T03:30:37.150Z,0
2019-03-23T03:31:40.205Z,0
2019-03-23T03:32:42.666Z,0
2019-03-23T03:33:45.475Z,0
2019-03-23T03:34:48.235Z,0
2019-03-23T03:35:50.300Z,0
2019-03-23T03:36:52.647Z,0
2019-03-23T03:37:58.563Z,0
2019-03-23T03:39:00.644Z,0
2019-03-23T03:40:03.419Z,0
2019-03-23T03:41:06.078Z,0
2019-03-23T03:42:08.388Z,0
2019-03-23T03:43:11.390Z,0
2019-03-23T03:44:13.426Z,0
2019-03-23T03:45:15.746Z,0
2019-03-23T03:46:18.107Z,0
2019-03-23T03:47:20.425Z,0
2019-03-23T03:48:22.481Z,0
2019-03-23T03:49:25.152Z,0
2019-03-23T03:50:27.707Z,0
2019-03-23T03:51:30.131Z,0
2019-03-23T03:52:32.556Z,0
2019-03-23T03:53:34.638Z,0
2019-03-23T03:54:37.359Z,0
2019-03-23T03:55:39.714Z,0
2019-03-23T03:56:42.138Z,0
2019-03-23T03:57:45.163Z,0
2019-03-23T03:58:47.861Z,0
2019-03-23T03:59:50.210Z,0
2019-03-23T04:00:52.259Z,0
2019-03-23T04:01:54.313Z,0
2019-03-23T04:02:56.648Z,0
2019-03-23T04:03:58.681Z,0
2019-03-23T04:05:00.964Z,0
2019-03-23T04:06:02.990Z,0
2019-03-23T04:07:05.642Z,0
2019-03-23T04:08:13.665Z,0
2019-03-23T04:09:16.008Z,0
2019-03-23T04:10:19.157Z,0
2019-03-23T04:11:21.472Z,0
2019-03-23T04:12:23.928Z,0
2019-03-23T04:13:25.971Z,0
2019-03-23T04:14:28.018Z,0
2019-03-23T04:15:30.051Z,0
2019-03-23T04:16:32.390Z,0
2019-03-23T04:17:34.719Z,0
2019-03-23T04:18:37.436Z,0
2019-03-23T04:19:39.588Z,0
2019-03-23T04:20:42.630Z,0
2019-03-23T04:21:44.987Z,0
2019-03-23T04:22:47.081Z,0
2019-03-23T04:23:49.128Z,0
2019-03-23T04:24:51.447Z,0
2019-03-23T04:25:53.523Z,0
2019-03-23T04:26:55.617Z,0
2019-03-23T04:27:57.674Z,0
2019-03-23T04:28:59.794Z,0
2019-03-23T04:30:03.223Z,0
2019-03-23T04:31:05.570Z,0
2019-03-23T04:32:07.869Z,0
2019-03-23T04:33:09.935Z,0
2019-03-23T04:34:12.268Z,0
2019-03-23T04:35:14.321Z,0
2019-03-23T04:36:16.388Z,0
2019-03-23T04:37:18.479Z,0
2019-03-23T04:38:25.056Z,0
2019-03-23T04:39:27.374Z,0
2019-03-23T04:40:29.744Z,0
2019-03-23T04:41:31.774Z,0
2019-03-23T04:42:33.799Z,0
2019-03-23T04:43:35.836Z,0
2019-03-23T04:44:37.861Z,0
2019-03-23T04:45:40.188Z,0
2019-03-23T04:46:44.542Z,0
2019-03-23T04:47:46.589Z,0
2019-03-23T04:48:48.610Z,0
2019-03-23T04:49:50.652Z,0
2019-03-23T04:50:52.687Z,0
2019-03-23T04:51:55.008Z,0
2019-03-23T04:52:57.049Z,0
2019-03-23T04:53:59.069Z,0
2019-03-23T04:55:01.262Z,0
2019-03-23T04:56:03.308Z,0
2019-03-23T04:57:05.612Z,0
2019-03-23T04:58:08.215Z,0
2019-03-23T04:59:10.918Z,0
2019-03-23T05:00:13.381Z,0
2019-03-23T05:01:15.422Z,0
2019-03-23T05:02:17.467Z,0
2019-03-23T05:03:19.795Z,0
2019-03-23T05:04:22.105Z,0
2019-03-23T05:05:24.146Z,0
2019-03-23T05:06:26.206Z,0
2019-03-23T05:07:28.240Z,0
2019-03-23T05:08:34.961Z,1
2019-03-23T05:09:36.981Z,1
2019-03-23T05:10:39.016Z,1
2019-03-23T05:11:41.050Z,1
2019-03-23T05:12:43.410Z,1
2019-03-23T05:13:45.425Z,1
2019-03-23T05:14:47.459Z,1
2019-03-23T05:15:49.769Z,1
2019-03-23T05:16:51.794Z,1
2019-03-23T05:17:53.844Z,1
2019-03-23T05:18:55.863Z,1
2019-03-23T05:19:57.901Z,1
2019-03-23T05:20:59.931Z,2
2019-03-23T05:22:01.997Z,2
2019-03-23T05:23:04.071Z,2
2019-03-23T05:24:06.107Z,2
2019-03-23T05:25:08.144Z,2
2019-03-23T05:26:10.446Z,2
2019-03-23T05:27:12.499Z,2
2019-03-23T05:28:14.816Z,3
2019-03-23T05:29:16.868Z,3
2019-03-23T05:30:18.926Z,3
2019-03-23T05:31:21.248Z,3
2019-03-23T05:32:23.283Z,3
2019-03-23T05:33:25.324Z,4
2019-03-23T05:34:27.352Z,4
2019-03-23T05:35:29.414Z,4
2019-03-23T05:36:31.452Z,4
2019-03-23T05:37:33.498Z,5
2019-03-23T05:38:45.989Z,5
2019-03-23T05:39:48.031Z,5
2019-03-23T05:40:50.074Z,5
2019-03-23T05:41:52.102Z,5
2019-03-23T05:42:54.142Z,6
2019-03-23T05:43:56.216Z,6
2019-03-23T05:44:58.251Z,6
2019-03-23T05:46:00.279Z,6
2019-03-23T05:47:02.337Z,7
2019-03-23T05:48:04.384Z,7
2019-03-23T05:49:06.455Z,7
2019-03-23T05:50:08.480Z,7
2019-03-23T05:51:10.967Z,7
2019-03-23T05:52:12.990Z,7
2019-03-23T05:53:15.020Z,7
2019-03-23T05:54:17.055Z,8
2019-03-23T05:55:19.102Z,8
2019-03-23T05:56:21.506Z,7
2019-03-23T05:57:23.548Z,7
2019-03-23T05:58:25.591Z,7
2019-03-23T05:59:27.620Z,7
2019-03-23T06:00:29.672Z,7
2019-03-23T06:01:31.714Z,7
2019-03-23T06:02:34.039Z,8
2019-03-23T06:03:36.068Z,8
2019-03-23T06:04:38.389Z,8
2019-03-23T06:05:40.423Z,9
2019-03-23T06:06:42.462Z,8
2019-03-23T06:07:44.551Z,8
2019-03-23T06:08:56.690Z,9
2019-03-23T06:09:58.720Z,8
2019-03-23T06:11:00.773Z,8
2019-03-23T06:12:02.798Z,8
2019-03-23T06:13:04.891Z,9
2019-03-23T06:14:06.953Z,9
2019-03-23T06:15:09.272Z,9
2019-03-23T06:16:11.320Z,9
2019-03-23T06:17:13.630Z,9
2019-03-23T06:18:15.661Z,9
2019-03-23T06:19:17.679Z,9
2019-03-23T06:20:20.105Z,9
2019-03-23T06:21:22.142Z,9
2019-03-23T06:22:24.171Z,9
2019-03-23T06:23:26.219Z,9
2019-03-23T06:24:28.247Z,9
2019-03-23T06:25:30.280Z,10
2019-03-23T06:26:32.600Z,10
2019-03-23T06:27:34.623Z,10
2019-03-23T06:28:36.711Z,10
2019-03-23T06:29:39.019Z,9
2019-03-23T06:30:41.051Z,9
2019-03-23T06:31:43.088Z,9
2019-03-23T06:32:45.107Z,9
2019-03-23T06:33:47.196Z,10
2019-03-23T06:34:49.534Z,11
2019-03-23T06:35:51.589Z,9
2019-03-23T06:36:53.622Z,10
2019-03-23T06:37:55.943Z,10
2019-03-23T06:39:07.691Z,9
2019-03-23T06:40:09.741Z,9
2019-03-23T06:41:12.159Z,9
2019-03-23T06:42:14.582Z,9
2019-03-23T06:43:16.613Z,10
2019-03-23T06:44:19.702Z,11
2019-03-23T06:45:21.720Z,10
2019-03-23T06:46:23.767Z,11
2019-03-23T06:47:25.795Z,12
2019-03-23T06:48:28.116Z,11
2019-03-23T06:49:30.445Z,12
2019-03-23T06:50:32.761Z,12
2019-03-23T06:51:34.794Z,14
2019-03-23T06:52:36.851Z,14
2019-03-23T06:53:38.895Z,13
2019-03-23T06:54:40.919Z,13
2019-03-23T06:55:42.951Z,15
2019-03-23T06:56:44.992Z,14
2019-03-23T06:57:47.020Z,13
2019-03-23T06:58:49.073Z,14
2019-03-23T06:59:51.108Z,14
2019-03-23T07:00:53.145Z,14
2019-03-23T07:01:55.160Z,13
2019-03-23T07:02:57.199Z,12
2019-03-23T07:03:59.231Z,12
2019-03-23T07:05:01.560Z,13
2019-03-23T07:06:03.959Z,13
2019-03-23T07:07:06.092Z,13
2019-03-23T07:08:08.136Z,13
2019-03-23T07:09:17.713Z,12
2019-03-23T07:10:20.026Z,13
2019-03-23T07:11:22.062Z,13
2019-03-23T07:12:24.098Z,13
2019-03-23T07:13:26.145Z,13
2019-03-23T07:14:28.582Z,17
2019-03-23T07:15:30.618Z,22
2019-03-23T07:16:32.660Z,22
2019-03-23T07:17:34.696Z,22
2019-03-23T07:18:36.720Z,24
2019-03-23T07:19:38.749Z,23
2019-03-23T07:20:40.787Z,21
2019-03-23T07:21:42.819Z,20
2019-03-23T07:22:44.873Z,20
2019-03-23T07:23:46.914Z,16
2019-03-23T07:24:48.945Z,17
2019-03-23T07:25:50.967Z,18
2019-03-23T07:26:53.014Z,20
2019-03-23T07:27:55.045Z,20
2019-03-23T07:28:57.077Z,22
2019-03-23T07:29:59.121Z,24
2019-03-23T07:31:01.143Z,23
2019-03-23T07:32:07.666Z,23
2019-03-23T07:33:10.082Z,21
2019-03-23T07:34:12.123Z,19
2019-03-23T07:35:14.542Z,17
2019-03-23T07:36:16.586Z,18
2019-03-23T07:37:18.633Z,20
2019-03-23T07:38:20.663Z,22
2019-03-23T07:39:31.703Z,24
2019-03-23T07:40:33.744Z,24
2019-03-23T07:41:35.795Z,24
2019-03-23T07:42:38.186Z,25
2019-03-23T07:43:40.214Z,27
2019-03-23T07:44:42.643Z,25
2019-03-23T07:45:45.059Z,25
2019-03-23T07:46:47.089Z,25
2019-03-23T07:47:49.144Z,24
2019-03-23T07:48:51.510Z,23
2019-03-23T07:49:53.551Z,26
2019-03-23T07:50:55.889Z,24
2019-03-23T07:51:57.930Z,25
2019-03-23T07:52:59.971Z,23
2019-03-23T07:54:04.263Z,18
2019-03-23T07:55:06.311Z,20
2019-03-23T07:56:08.335Z,21
2019-03-23T07:57:10.372Z,23
2019-03-23T07:58:12.404Z,24
2019-03-23T07:59:14.451Z,25
2019-03-23T08:00:16.874Z,29
2019-03-23T08:01:18.924Z,32
2019-03-23T08:02:20.962Z,28
2019-03-23T08:03:22.987Z,29
2019-03-23T08:04:25.043Z,30
2019-03-23T08:05:27.068Z,26
2019-03-23T08:06:29.102Z,24
2019-03-23T08:07:31.127Z,23
2019-03-23T08:08:33.177Z,28
2019-03-23T08:09:39.461Z,33
2019-03-23T08:10:41.783Z,31
2019-03-23T08:11:43.851Z,28
2019-03-23T08:12:45.901Z,28
2019-03-23T08:13:47.980Z,26
2019-03-23T08:14:50.028Z,25
2019-03-23T08:15:52.057Z,27
2019-03-23T08:16:54.091Z,35
2019-03-23T08:17:56.145Z,28
2019-03-23T08:18:58.176Z,29
2019-03-23T08:20:00.352Z,30
2019-03-23T08:21:02.450Z,33
2019-03-23T08:22:04.884Z,35
2019-03-23T08:23:06.913Z,37
2019-03-23T08:24:09.219Z,38
2019-03-23T08:25:11.274Z,42
2019-03-23T08:26:13.309Z,41
2019-03-23T08:27:15.346Z,48
2019-03-23T08:28:17.689Z,69
2019-03-23T08:29:19.707Z,49
2019-03-23T08:30:22.141Z,54
2019-03-23T08:31:24.184Z,74
2019-03-23T08:32:26.229Z,78
2019-03-23T08:33:28.247Z,73
2019-03-23T08:34:30.613Z,61
2019-03-23T08:35:32.644Z,50
2019-03-23T08:36:35.131Z,51
2019-03-23T08:37:37.199Z,54
2019-03-23T08:38:39.222Z,53
2019-03-23T08:39:50.248Z,45
2019-03-23T08:40:52.283Z,46
2019-03-23T08:41:54.333Z,35
2019-03-23T08:42:56.369Z,35
2019-03-23T08:44:56.199Z,31
2019-03-23T08:45:58.245Z,43
2019-03-23T08:47:00.266Z,42
2019-03-23T08:48:02.599Z,38
2019-03-23T08:49:04.914Z,46
2019-03-23T08:50:07.235Z,64
2019-03-23T08:51:09.651Z,50
2019-03-23T08:52:11.688Z,53
2019-03-23T08:53:13.735Z,57
2019-03-23T08:54:15.774Z,52
2019-03-23T08:55:17.818Z,48
2019-03-23T08:56:20.126Z,46
2019-03-23T08:57:22.458Z,52
2019-03-23T08:58:24.488Z,43
2019-03-23T08:59:26.547Z,41
2019-03-23T09:00:28.577Z,34
2019-03-23T09:01:30.619Z,34
2019-03-23T09:02:32.669Z,35
2019-03-23T09:03:34.687Z,37
2019-03-23T09:04:36.732Z,34
2019-03-23T09:05:39.073Z,35
2019-03-23T09:06:41.114Z,37
2019-03-23T09:07:43.132Z,36
2019-03-23T09:08:45.172Z,35
2019-03-23T09:09:47.216Z,31
2019-03-23T09:10:49.541Z,51
2019-03-23T09:11:51.586Z,39
2019-03-23T09:12:53.616Z,50
2019-03-23T09:13:55.664Z,41
2019-03-23T09:14:57.731Z,39
2019-03-23T09:15:59.776Z,49
2019-03-23T09:17:01.807Z,39
2019-03-23T09:18:03.848Z,40
2019-03-23T09:19:06.164Z,44
2019-03-23T09:20:08.187Z,48
2019-03-23T09:21:10.235Z,53
2019-03-23T09:22:12.282Z,52
2019-03-23T09:23:14.309Z,57
2019-03-23T09:24:16.350Z,62
2019-03-23T09:25:18.726Z,63
2019-03-23T09:26:20.765Z,71
2019-03-23T09:27:22.809Z,62
2019-03-23T09:28:25.241Z,71
2019-03-23T09:29:27.308Z,72
2019-03-23T09:30:29.354Z,72
2019-03-23T09:31:31.412Z,71
2019-03-23T09:32:33.438Z,73
2019-03-23T09:33:35.485Z,65
2019-03-23T09:34:37.526Z,57
2019-03-23T09:35:41.078Z,66
2019-03-23T09:36:43.106Z,64
2019-03-23T09:37:45.148Z,68
2019-03-23T09:38:47.210Z,68
2019-03-23T09:39:49.263Z,57
2019-03-23T09:40:51.288Z,50
2019-03-23T09:41:53.664Z,43
2019-03-23T09:42:55.995Z,40
2019-03-23T09:43:58.343Z,42
2019-03-23T09:45:00.721Z,45
2019-03-23T09:46:02.748Z,57
2019-03-23T09:47:04.785Z,66
2019-03-23T09:48:06.825Z,74
2019-03-23T09:49:09.176Z,50
2019-03-23T09:50:11.512Z,47
2019-03-23T09:51:13.545Z,73
2019-03-23T09:52:15.871Z,90
2019-03-23T09:53:17.934Z,102
2019-03-23T09:54:19.983Z,74
2019-03-23T09:55:22.013Z,67
2019-03-23T09:56:24.322Z,75
2019-03-23T09:57:26.365Z,90
2019-03-23T09:58:28.408Z,95
2019-03-23T09:59:30.466Z,99
2019-03-23T10:00:32.518Z,77
2019-03-23T10:01:34.559Z,80
2019-03-23T10:02:36.887Z,94
2019-03-23T10:03:38.922Z,71
2019-03-23T10:04:40.970Z,62
2019-03-23T10:05:43.001Z,49
2019-03-23T10:06:45.448Z,55
2019-03-23T10:07:47.771Z,51
2019-03-23T10:08:49.806Z,50
2019-03-23T10:09:51.870Z,49
2019-03-23T10:10:54.324Z,48
2019-03-23T10:11:56.358Z,55
2019-03-23T10:12:58.390Z,59
2019-03-23T10:14:03.057Z,60
2019-03-23T10:15:05.138Z,56
2019-03-23T10:16:07.178Z,61
2019-03-23T10:17:09.231Z,61
2019-03-23T10:18:11.266Z,72
2019-03-23T10:19:13.327Z,68
2019-03-23T10:20:15.373Z,58
2019-03-23T10:21:17.413Z,55
2019-03-23T10:22:19.441Z,63
2019-03-23T10:23:21.480Z,81
2019-03-23T10:24:23.527Z,77
2019-03-23T10:25:25.942Z,100
2019-03-23T10:26:27.994Z,261
2019-03-23T10:27:30.021Z,199
2019-03-23T10:28:32.060Z,138
2019-03-23T10:29:34.113Z,177
2019-03-23T10:30:36.166Z,167
2019-03-23T10:31:38.499Z,142
2019-03-23T10:32:40.831Z,228
2019-03-23T10:33:42.862Z,265
2019-03-23T10:34:44.899Z,140
2019-03-23T10:35:46.945Z,174
2019-03-23T10:36:48.987Z,151
2019-03-23T10:37:51.014Z,120
2019-03-23T10:38:53.077Z,288
2019-03-23T10:39:55.110Z,149
2019-03-23T10:40:57.192Z,156
2019-03-23T10:41:59.245Z,210
2019-03-23T10:43:01.273Z,295
2019-03-23T10:44:03.332Z,307
2019-03-23T10:45:05.379Z,291
2019-03-23T10:46:07.477Z,330
2019-03-23T10:47:09.503Z,288
2019-03-23T10:48:13.540Z,275
2019-03-23T10:49:15.606Z,322
2019-03-23T10:50:17.689Z,326
2019-03-23T10:51:20.116Z,152
2019-03-23T10:52:22.193Z,221
2019-03-23T10:53:24.733Z,131
2019-03-23T10:54:26.820Z,106
2019-03-23T10:55:28.852Z,141
2019-03-23T10:56:30.917Z,186
2019-03-23T10:57:33.034Z,285
2019-03-23T10:58:35.075Z,192
2019-03-23T10:59:37.425Z,214
2019-03-23T11:00:39.457Z,295
2019-03-23T11:01:41.508Z,308
2019-03-23T11:02:44.237Z,163
2019-03-23T11:03:46.272Z,155
2019-03-23T11:04:48.397Z,133
2019-03-23T11:05:50.437Z,126
2019-03-23T11:06:52.518Z,127
2019-03-23T11:07:54.565Z,134
2019-03-23T11:08:57.046Z,119
2019-03-23T11:09:59.088Z,104
2019-03-23T11:11:01.122Z,94
2019-03-23T11:12:03.496Z,90
2019-03-23T11:13:05.811Z,86
2019-03-23T11:14:07.928Z,85
2019-03-23T11:15:09.976Z,87
2019-03-23T11:16:12.070Z,91
2019-03-23T11:17:14.129Z,99
2019-03-23T11:18:16.173Z,99
2019-03-23T11:19:18.228Z,100
2019-03-23T11:20:20.648Z,100
2019-03-23T11:21:23.024Z,98
2019-03-23T11:22:25.079Z,87
2019-03-23T11:23:27.230Z,81
2019-03-23T11:24:29.675Z,85
2019-03-23T11:25:32.073Z,86
2019-03-23T11:26:34.493Z,86
2019-03-23T11:27:36.539Z,82
2019-03-23T11:28:38.594Z,74
2019-03-23T11:29:40.627Z,69
2019-03-23T11:30:42.692Z,65
2019-03-23T11:31:44.727Z,61
2019-03-23T11:32:46.780Z,56
2019-03-23T11:33:48.810Z,51
2019-03-23T11:34:51.423Z,48
2019-03-23T11:35:59.380Z,48
2019-03-23T11:37:01.848Z,47
2019-03-23T11:38:04.335Z,46
2019-03-23T11:39:06.450Z,45
2019-03-23T11:40:08.494Z,45
2019-03-23T11:41:10.534Z,45
2019-03-23T11:42:12.688Z,47
2019-03-23T11:43:15.041Z,48
2019-03-23T11:44:17.110Z,49
2019-03-23T11:45:19.159Z,48
2019-03-23T11:46:21.203Z,47
2019-03-23T11:47:23.548Z,47
2019-03-23T11:48:25.612Z,47
2019-03-23T11:49:27.971Z,48
2019-03-23T11:50:30.402Z,48
2019-03-23T11:51:32.445Z,49
2019-03-23T11:52:34.500Z,48
2019-03-23T11:53:36.536Z,48
2019-03-23T11:54:38.579Z,48
2019-03-23T11:55:40.915Z,48
2019-03-23T11:56:42.953Z,48
2019-03-23T11:57:45.432Z,49
2019-03-23T11:58:47.461Z,47
2019-03-23T11:59:49.500Z,47
2019-03-23T12:00:51.826Z,48
2019-03-23T12:01:53.874Z,46
2019-03-23T12:02:55.909Z,46
2019-03-23T12:03:57.957Z,49
2019-03-23T12:05:00.003Z,51
2019-03-23T12:06:02.316Z,50
2019-03-23T12:07:04.649Z,48
2019-03-23T12:08:06.717Z,47
2019-03-23T12:09:08.786Z,47
2019-03-23T12:10:11.127Z,49
2019-03-23T12:11:13.538Z,48
2019-03-23T12:12:15.571Z,48
2019-03-23T12:13:17.609Z,49
2019-03-23T12:14:19.653Z,48
2019-03-23T12:15:22.005Z,46
2019-03-23T12:16:24.044Z,46
2019-03-23T12:17:26.071Z,44
2019-03-23T12:18:28.128Z,42
2019-03-23T12:19:30.161Z,41
2019-03-23T12:20:32.196Z,41
2019-03-23T12:21:34.254Z,41
2019-03-23T12:22:36.562Z,42
2019-03-23T12:23:38.606Z,41
2019-03-23T12:24:40.924Z,42
2019-03-23T12:25:43.364Z,41
2019-03-23T12:26:45.392Z,39
2019-03-23T12:27:47.432Z,41
2019-03-23T12:28:49.468Z,43
2019-03-23T12:29:51.780Z,47
2019-03-23T12:30:53.832Z,49
2019-03-23T12:31:55.861Z,49
2019-03-23T12:32:58.201Z,49
2019-03-23T12:34:00.235Z,48
2019-03-23T12:35:02.288Z,45
2019-03-23T12:36:04.709Z,44
2019-03-23T12:37:06.752Z,42
2019-03-23T12:38:08.796Z,38
2019-03-23T12:39:10.824Z,37
2019-03-23T12:40:12.873Z,37
2019-03-23T12:41:24.619Z,39
2019-03-23T12:42:26.666Z,41
2019-03-23T12:43:28.703Z,40
2019-03-23T12:44:30.754Z,40
2019-03-23T12:45:32.792Z,42
2019-03-23T12:46:34.839Z,42
2019-03-23T12:47:36.881Z,38
2019-03-23T12:48:39.200Z,35
2019-03-23T12:49:41.239Z,35
2019-03-23T12:50:43.576Z,38
2019-03-23T12:51:45.601Z,39
2019-03-23T12:52:47.649Z,40
2019-03-23T12:53:49.687Z,40
2019-03-23T12:54:51.720Z,39
2019-03-23T12:55:53.771Z,36
2019-03-23T12:56:55.805Z,36
2019-03-23T12:57:58.268Z,34
2019-03-23T12:59:00.295Z,31
2019-03-23T13:00:02.357Z,26
2019-03-23T13:01:04.394Z,22
2019-03-23T13:02:06.817Z,24
2019-03-23T13:03:08.868Z,20
2019-03-23T13:04:10.892Z,17
2019-03-23T13:05:13.221Z,16
2019-03-23T13:06:15.260Z,16
2019-03-23T13:07:17.301Z,16
2019-03-23T13:08:19.710Z,15
2019-03-23T13:09:21.753Z,15
2019-03-23T13:10:23.814Z,15
2019-03-23T13:11:37.194Z,17
2019-03-23T13:12:39.244Z,22
2019-03-23T13:13:41.271Z,19
2019-03-23T13:14:43.310Z,19
2019-03-23T13:15:45.360Z,21
2019-03-23T13:16:47.398Z,19
2019-03-23T13:17:49.443Z,18
2019-03-23T13:18:51.488Z,16
2019-03-23T13:19:53.517Z,14
2019-03-23T13:20:55.555Z,13
2019-03-23T13:21:57.611Z,13
2019-03-23T13:22:59.645Z,15
2019-03-23T13:24:01.695Z,20
2019-03-23T13:25:04.398Z,23
2019-03-23T13:26:06.449Z,23
2019-03-23T13:27:08.487Z,23
2019-03-23T13:28:10.513Z,22
2019-03-23T13:29:12.569Z,18
2019-03-23T13:30:14.604Z,20
2019-03-23T13:31:16.673Z,21
2019-03-23T13:32:18.703Z,21
2019-03-23T13:33:20.756Z,28
2019-03-23T13:34:22.784Z,33
2019-03-23T13:35:25.109Z,29
2019-03-23T13:36:27.437Z,29
2019-03-23T13:37:29.461Z,28
2019-03-23T13:38:31.510Z,30
2019-03-23T13:39:33.545Z,31
2019-03-23T13:40:35.591Z,30
2019-03-23T13:41:45.955Z,29
2019-03-23T13:42:47.993Z,29
2019-03-23T13:43:50.030Z,31
2019-03-23T13:44:52.059Z,35
2019-03-23T13:45:54.131Z,36
2019-03-23T13:46:56.163Z,36
2019-03-23T13:47:58.201Z,37
2019-03-23T13:49:00.537Z,36
2019-03-23T13:50:02.578Z,35
2019-03-23T13:51:04.896Z,35
2019-03-23T13:52:06.936Z,37
2019-03-23T13:53:08.966Z,41
2019-03-23T13:54:10.998Z,46
2019-03-23T13:55:14.663Z,51
2019-03-23T13:56:16.694Z,52
2019-03-23T13:57:18.725Z,61
2019-03-23T13:58:20.800Z,117
2019-03-23T13:59:22.839Z,123
2019-03-23T14:00:24.891Z,100
2019-03-23T14:01:27.319Z,99
2019-03-23T14:02:29.375Z,113
2019-03-23T14:03:31.407Z,156
2019-03-23T14:04:33.444Z,106
2019-03-23T14:05:35.473Z,104
2019-03-23T14:06:37.528Z,154
2019-03-23T14:07:39.594Z,95
2019-03-23T14:08:41.630Z,122
2019-03-23T14:09:43.671Z,104
2019-03-23T14:10:45.695Z,100
2019-03-23T14:11:56.523Z,93
2019-03-23T14:12:58.576Z,86
2019-03-23T14:14:00.627Z,70
2019-03-23T14:15:02.669Z,69
2019-03-23T14:16:05.096Z,72
2019-03-23T14:17:07.412Z,72
2019-03-23T14:18:09.446Z,75
2019-03-23T14:19:11.498Z,78
2019-03-23T14:20:13.528Z,79
2019-03-23T14:21:15.566Z,68
2019-03-23T14:22:17.620Z,67
2019-03-23T14:23:19.660Z,63
2019-03-23T14:24:21.695Z,62
2019-03-23T14:25:23.736Z,63
2019-03-23T14:26:26.158Z,63
2019-03-23T14:27:28.498Z,66
2019-03-23T14:28:30.828Z,67
2019-03-23T14:29:32.874Z,66
2019-03-23T14:30:34.899Z,63
2019-03-23T14:31:36.954Z,63
2019-03-23T14:32:38.987Z,60
2019-03-23T14:33:41.941Z,64
2019-03-23T14:34:43.986Z,64
2019-03-23T14:35:46.030Z,88
2019-03-23T14:36:48.406Z,77
2019-03-23T14:37:51.021Z,67
2019-03-23T14:38:53.742Z,59
2019-03-23T14:39:55.778Z,57
2019-03-23T14:40:57.812Z,53
2019-03-23T14:42:06.732Z,47
2019-03-23T14:43:08.777Z,41
2019-03-23T14:44:11.088Z,40
2019-03-23T14:45:13.139Z,46
2019-03-23T14:46:16.714Z,51
2019-03-23T14:47:18.765Z,54
2019-03-23T14:48:20.790Z,58
2019-03-23T14:49:22.838Z,69
2019-03-23T14:50:24.887Z,64
2019-03-23T14:51:27.202Z,61
2019-03-23T14:52:29.636Z,60
2019-03-23T14:53:31.669Z,62
2019-03-23T14:54:34.498Z,63
2019-03-23T14:55:38.711Z,63
2019-03-23T14:56:40.765Z,57
2019-03-23T14:57:42.807Z,56
2019-03-23T14:58:44.851Z,56
2019-03-23T14:59:47.307Z,55
2019-03-23T15:00:50.038Z,51
2019-03-23T15:01:52.101Z,44
2019-03-23T15:02:54.523Z,37